sensor_id;sensor_type;location;lat;lon;timestamp;pressure;altitude;pressure_sealevel;temperature;humidity
75555;BME280;64138;53.124;18.032;2022-11-20T00:01:14;100789.86;;;-1.04;81.22
75555;BME280;64138;53.124;18.032;2022-11-20T00:03:41;100792.17;;;-1.03;81.14
75555;BME280;64138;53.124;18.032;2022-11-20T00:06:10;100791.23;;;-1.04;81.36
75555;BME280;64138;53.124;18.032;2022-11-20T00:08:37;100790.73;;;-1.05;81.38
75555;BME280;64138;53.124;18.032;2022-11-20T00:11:04;100781.61;;;-1.09;81.63
75555;BME280;64138;53.124;18.032;2022-11-20T00:13:31;100787.73;;;-1.04;81.42
75555;BME280;64138;53.124;18.032;2022-11-20T00:15:58;100789.45;;;-1.03;81.43
75555;BME280;64138;53.124;18.032;2022-11-20T00:18:28;100786.77;;;-1.03;81.43
75555;BME280;64138;53.124;18.032;2022-11-20T00:21:00;100790.05;;;-1.03;81.51
75555;BME280;64138;53.124;18.032;2022-11-20T00:23:26;100796.34;;;-1.02;81.40
75555;BME280;64138;53.124;18.032;2022-11-20T00:25:52;100797.29;;;-1.01;81.49
75555;BME280;64138;53.124;18.032;2022-11-20T00:28:18;100788.27;;;-1.12;81.36
75555;BME280;64138;53.124;18.032;2022-11-20T00:30:44;100803.41;;;-1.05;81.47
75555;BME280;64138;53.124;18.032;2022-11-20T00:33:10;100804.00;;;-1.05;81.51
75555;BME280;64138;53.124;18.032;2022-11-20T00:35:36;100804.23;;;-1.05;81.49
75555;BME280;64138;53.124;18.032;2022-11-20T00:38:02;100801.68;;;-1.04;81.49
75555;BME280;64138;53.124;18.032;2022-11-20T00:40:28;100797.09;;;-1.00;81.46
75555;BME280;64138;53.124;18.032;2022-11-20T00:42:55;100795.38;;;-0.99;81.41
75555;BME280;64138;53.124;18.032;2022-11-20T00:45:21;100794.90;;;-0.99;81.37
75555;BME280;64138;53.124;18.032;2022-11-20T00:47:47;100794.09;;;-0.98;81.34
75555;BME280;64138;53.124;18.032;2022-11-20T00:50:13;100796.67;;;-0.99;81.62
75555;BME280;64138;53.124;18.032;2022-11-20T00:52:39;100797.02;;;-1.02;81.61
75555;BME280;64138;53.124;18.032;2022-11-20T00:55:05;100794.73;;;-1.07;81.57
75555;BME280;64138;53.124;18.032;2022-11-20T00:57:31;100796.23;;;-1.07;81.69
75555;BME280;64138;53.124;18.032;2022-11-20T00:59:57;100799.14;;;-1.05;81.67
75555;BME280;64138;53.124;18.032;2022-11-20T01:02:23;100802.14;;;-1.00;81.69
75555;BME280;64138;53.124;18.032;2022-11-20T01:04:49;100800.42;;;-0.96;81.61
75555;BME280;64138;53.124;18.032;2022-11-20T01:07:15;100801.38;;;-0.95;81.52
75555;BME280;64138;53.124;18.032;2022-11-20T01:09:41;100801.16;;;-0.95;81.47
75555;BME280;64138;53.124;18.032;2022-11-20T01:12:07;100802.48;;;-0.92;81.38
75555;BME280;64138;53.124;18.032;2022-11-20T01:14:33;100792.88;;;-0.92;81.37
75555;BME280;64138;53.124;18.032;2022-11-20T01:16:59;100791.70;;;-0.93;81.54
75555;BME280;64138;53.124;18.032;2022-11-20T01:19:25;100790.33;;;-0.92;81.57
75555;BME280;64138;53.124;18.032;2022-11-20T01:21:53;100789.01;;;-0.91;81.58
75555;BME280;64138;53.124;18.032;2022-11-20T01:24:21;100785.61;;;-0.90;81.44
75555;BME280;64138;53.124;18.032;2022-11-20T01:26:49;100778.31;;;-0.90;81.49
75555;BME280;64138;53.124;18.032;2022-11-20T01:29:19;100775.14;;;-0.91;81.40
75555;BME280;64138;53.124;18.032;2022-11-20T01:31:45;100777.23;;;-0.88;81.39
75555;BME280;64138;53.124;18.032;2022-11-20T01:34:16;100779.95;;;-0.84;81.52
75555;BME280;64138;53.124;18.032;2022-11-20T01:36:43;100784.53;;;-0.82;81.43
75555;BME280;64138;53.124;18.032;2022-11-20T01:39:15;100785.55;;;-0.81;81.28
75555;BME280;64138;53.124;18.032;2022-11-20T01:41:42;100789.03;;;-0.80;81.30
75555;BME280;64138;53.124;18.032;2022-11-20T01:44:52;100784.93;;;-0.82;81.42
75555;BME280;64138;53.124;18.032;2022-11-20T01:47:40;100784.48;;;-0.79;81.30
75555;BME280;64138;53.124;18.032;2022-11-20T01:52:51;100792.07;;;-0.76;81.08
75555;BME280;64138;53.124;18.032;2022-11-20T01:55:24;100785.58;;;-0.78;81.21
75555;BME280;64138;53.124;18.032;2022-11-20T01:57:51;100781.05;;;-0.79;81.14
75555;BME280;64138;53.124;18.032;2022-11-20T02:00:19;100780.59;;;-0.81;81.14
75555;BME280;64138;53.124;18.032;2022-11-20T02:02:50;100779.81;;;-0.84;81.18
75555;BME280;64138;53.124;18.032;2022-11-20T02:08:09;100782.44;;;-0.81;81.14
75555;BME280;64138;53.124;18.032;2022-11-20T02:10:35;100778.58;;;-0.84;81.13
75555;BME280;64138;53.124;18.032;2022-11-20T02:13:01;100777.35;;;-0.84;81.11
75555;BME280;64138;53.124;18.032;2022-11-20T02:15:46;100774.58;;;-0.87;81.10
75555;BME280;64138;53.124;18.032;2022-11-20T02:18:19;100775.05;;;-0.89;81.26
75555;BME280;64138;53.124;18.032;2022-11-20T02:20:47;100770.79;;;-0.91;81.42
75555;BME280;64138;53.124;18.032;2022-11-20T02:23:22;100770.69;;;-0.94;81.41
75555;BME280;64138;53.124;18.032;2022-11-20T02:25:52;100755.42;;;-1.03;81.45
75555;BME280;64138;53.124;18.032;2022-11-20T02:28:20;100754.43;;;-1.05;81.53
75555;BME280;64138;53.124;18.032;2022-11-20T02:30:46;100763.27;;;-0.99;81.55
75555;BME280;64138;53.124;18.032;2022-11-20T02:33:12;100760.86;;;-0.96;81.34
75555;BME280;64138;53.124;18.032;2022-11-20T02:35:41;100756.81;;;-0.91;81.32
75555;BME280;64138;53.124;18.032;2022-11-20T02:38:07;100753.77;;;-0.90;81.23
75555;BME280;64138;53.124;18.032;2022-11-20T02:40:34;100751.30;;;-0.92;81.40
75555;BME280;64138;53.124;18.032;2022-11-20T02:43:00;100752.73;;;-0.92;81.51
75555;BME280;64138;53.124;18.032;2022-11-20T02:45:25;100749.24;;;-0.97;81.42
75555;BME280;64138;53.124;18.032;2022-11-20T02:47:52;100750.58;;;-0.98;81.34
75555;BME280;64138;53.124;18.032;2022-11-20T02:50:18;100752.18;;;-1.00;81.90
75555;BME280;64138;53.124;18.032;2022-11-20T02:52:44;100755.05;;;-1.03;81.85
75555;BME280;64138;53.124;18.032;2022-11-20T02:55:10;100761.50;;;-1.04;81.68
75555;BME280;64138;53.124;18.032;2022-11-20T02:57:36;100758.54;;;-1.04;81.68
75555;BME280;64138;53.124;18.032;2022-11-20T03:00:03;100761.28;;;-0.95;81.37
75555;BME280;64138;53.124;18.032;2022-11-20T03:02:30;100759.37;;;-0.92;81.44
75555;BME280;64138;53.124;18.032;2022-11-20T03:04:56;100765.20;;;-0.91;81.72
75555;BME280;64138;53.124;18.032;2022-11-20T03:07:22;100764.52;;;-0.89;81.58
75555;BME280;64138;53.124;18.032;2022-11-20T03:09:48;100763.27;;;-0.88;81.52
75555;BME280;64138;53.124;18.032;2022-11-20T03:12:14;100761.52;;;-0.92;81.96
75555;BME280;64138;53.124;18.032;2022-11-20T03:14:40;100761.27;;;-0.93;81.78
75555;BME280;64138;53.124;18.032;2022-11-20T03:17:06;100760.13;;;-0.97;81.87
75555;BME280;64138;53.124;18.032;2022-11-20T03:19:33;100758.75;;;-1.00;81.81
75555;BME280;64138;53.124;18.032;2022-11-20T03:22:00;100752.33;;;-1.02;81.91
75555;BME280;64138;53.124;18.032;2022-11-20T03:24:26;100757.00;;;-1.02;82.00
75555;BME280;64138;53.124;18.032;2022-11-20T03:26:52;100755.48;;;-0.95;81.74
75555;BME280;64138;53.124;18.032;2022-11-20T03:29:18;100756.44;;;-0.95;81.74
75555;BME280;64138;53.124;18.032;2022-11-20T03:31:44;100737.17;;;-1.06;81.89
75555;BME280;64138;53.124;18.032;2022-11-20T03:34:11;100750.79;;;-0.94;81.94
75555;BME280;64138;53.124;18.032;2022-11-20T03:36:41;100735.69;;;-1.02;82.01
75555;BME280;64138;53.124;18.032;2022-11-20T03:39:08;100744.79;;;-0.97;82.01
75555;BME280;64138;53.124;18.032;2022-11-20T03:41:39;100749.27;;;-0.98;81.90
75555;BME280;64138;53.124;18.032;2022-11-20T03:44:07;100751.20;;;-0.97;82.08
75555;BME280;64138;53.124;18.032;2022-11-20T03:46:34;100738.75;;;-1.07;82.13
75555;BME280;64138;53.124;18.032;2022-11-20T03:49:00;100748.61;;;-1.01;82.05
75555;BME280;64138;53.124;18.032;2022-11-20T03:51:31;100754.38;;;-0.98;82.03
75555;BME280;64138;53.124;18.032;2022-11-20T03:54:00;100752.55;;;-0.94;81.76
75555;BME280;64138;53.124;18.032;2022-11-20T03:56:29;100750.73;;;-0.89;81.67
75555;BME280;64138;53.124;18.032;2022-11-20T03:58:56;100752.91;;;-0.88;81.77
75555;BME280;64138;53.124;18.032;2022-11-20T04:01:25;100742.15;;;-0.94;81.62
75555;BME280;64138;53.124;18.032;2022-11-20T04:03:53;100753.88;;;-0.90;81.77
75555;BME280;64138;53.124;18.032;2022-11-20T04:06:32;100755.92;;;-0.95;81.85
75555;BME280;64138;53.124;18.032;2022-11-20T04:08:59;100745.05;;;-1.03;81.89
75555;BME280;64138;53.124;18.032;2022-11-20T04:11:28;100752.48;;;-1.05;82.40
75555;BME280;64138;53.124;18.032;2022-11-20T04:13:57;100737.83;;;-1.16;82.04
75555;BME280;64138;53.124;18.032;2022-11-20T04:16:24;100752.66;;;-0.99;81.90
75555;BME280;64138;53.124;18.032;2022-11-20T04:18:56;100750.11;;;-1.02;81.83
75555;BME280;64138;53.124;18.032;2022-11-20T04:21:23;100736.66;;;-1.08;82.02
75555;BME280;64138;53.124;18.032;2022-11-20T04:23:50;100744.98;;;-1.01;82.00
75555;BME280;64138;53.124;18.032;2022-11-20T04:26:16;100743.48;;;-1.05;82.25
75555;BME280;64138;53.124;18.032;2022-11-20T04:28:42;100743.58;;;-1.06;82.28
75555;BME280;64138;53.124;18.032;2022-11-20T04:31:14;100742.92;;;-1.05;82.59
75555;BME280;64138;53.124;18.032;2022-11-20T04:33:40;100741.77;;;-1.08;82.62
75555;BME280;64138;53.124;18.032;2022-11-20T04:36:11;100734.58;;;-1.11;82.50
75555;BME280;64138;53.124;18.032;2022-11-20T04:38:38;100737.69;;;-1.00;82.36
75555;BME280;64138;53.124;18.032;2022-11-20T04:41:07;100733.75;;;-0.99;82.18
75555;BME280;64138;53.124;18.032;2022-11-20T04:43:33;100730.89;;;-0.98;82.08
75555;BME280;64138;53.124;18.032;2022-11-20T04:46:01;100730.89;;;-0.98;82.13
75555;BME280;64138;53.124;18.032;2022-11-20T04:48:28;100727.89;;;-1.01;82.10
75555;BME280;64138;53.124;18.032;2022-11-20T04:50:54;100726.02;;;-1.05;82.39
75555;BME280;64138;53.124;18.032;2022-11-20T04:53:21;100722.39;;;-1.10;82.62
75555;BME280;64138;53.124;18.032;2022-11-20T04:55:47;100722.30;;;-1.13;82.94
75555;BME280;64138;53.124;18.032;2022-11-20T04:58:14;100724.91;;;-1.08;82.63
75555;BME280;64138;53.124;18.032;2022-11-20T05:00:40;100723.89;;;-1.02;82.40
75555;BME280;64138;53.124;18.032;2022-11-20T05:03:06;100725.04;;;-1.02;82.16
75555;BME280;64138;53.124;18.032;2022-11-20T05:05:33;100719.47;;;-1.04;82.29
75555;BME280;64138;53.124;18.032;2022-11-20T05:07:59;100720.19;;;-1.03;82.18
75555;BME280;64138;53.124;18.032;2022-11-20T05:10:26;100711.48;;;-1.08;82.65
75555;BME280;64138;53.124;18.032;2022-11-20T05:12:52;100709.45;;;-1.16;82.35
75555;BME280;64138;53.124;18.032;2022-11-20T05:15:18;100713.22;;;-1.19;82.47
75555;BME280;64138;53.124;18.032;2022-11-20T05:17:48;100714.18;;;-1.22;82.87
75555;BME280;64138;53.124;18.032;2022-11-20T05:20:15;100712.73;;;-1.22;82.57
75555;BME280;64138;53.124;18.032;2022-11-20T05:22:41;100716.15;;;-1.18;82.77
75555;BME280;64138;53.124;18.032;2022-11-20T05:25:08;100710.93;;;-1.21;82.55
75555;BME280;64138;53.124;18.032;2022-11-20T05:27:34;100708.77;;;-1.20;82.73
75555;BME280;64138;53.124;18.032;2022-11-20T05:30:00;100708.48;;;-1.16;82.40
75555;BME280;64138;53.124;18.032;2022-11-20T05:32:26;100708.45;;;-1.15;82.52
75555;BME280;64138;53.124;18.032;2022-11-20T05:34:52;100707.94;;;-1.16;82.56
75555;BME280;64138;53.124;18.032;2022-11-20T05:37:18;100711.87;;;-1.21;82.74
75555;BME280;64138;53.124;18.032;2022-11-20T05:39:44;100713.35;;;-1.22;82.75
75555;BME280;64138;53.124;18.032;2022-11-20T05:42:10;100717.42;;;-1.23;83.21
75555;BME280;64138;53.124;18.032;2022-11-20T05:44:54;100717.20;;;-1.15;83.03
75555;BME280;64138;53.124;18.032;2022-11-20T05:47:20;100715.62;;;-1.12;82.75
75555;BME280;64138;53.124;18.032;2022-11-20T05:49:46;100717.68;;;-1.10;82.86
75555;BME280;64138;53.124;18.032;2022-11-20T05:52:12;100716.16;;;-1.12;82.75
75555;BME280;64138;53.124;18.032;2022-11-20T05:54:38;100715.00;;;-1.16;82.72
75555;BME280;64138;53.124;18.032;2022-11-20T05:57:04;100711.16;;;-1.21;83.08
75555;BME280;64138;53.124;18.032;2022-11-20T05:59:30;100711.14;;;-1.22;83.31
75555;BME280;64138;53.124;18.032;2022-11-20T06:01:56;100715.32;;;-1.12;82.97
75555;BME280;64138;53.124;18.032;2022-11-20T06:04:23;100716.84;;;-1.07;82.76
75555;BME280;64138;53.124;18.032;2022-11-20T06:06:49;100719.23;;;-1.07;82.79
75555;BME280;64138;53.124;18.032;2022-11-20T06:09:15;100717.02;;;-1.07;82.94
75555;BME280;64138;53.124;18.032;2022-11-20T06:11:41;100722.28;;;-1.09;82.94
75555;BME280;64138;53.124;18.032;2022-11-20T06:14:07;100724.35;;;-1.11;83.04
75555;BME280;64138;53.124;18.032;2022-11-20T06:16:33;100709.31;;;-1.22;82.84
75555;BME280;64138;53.124;18.032;2022-11-20T06:18:59;100719.20;;;-1.17;82.95
75555;BME280;64138;53.124;18.032;2022-11-20T06:21:25;100724.95;;;-1.09;82.89
75555;BME280;64138;53.124;18.032;2022-11-20T06:23:52;100723.95;;;-1.05;83.07
75555;BME280;64138;53.124;18.032;2022-11-20T06:26:26;100722.63;;;-1.03;83.29
75555;BME280;64138;53.124;18.032;2022-11-20T06:28:53;100717.16;;;-1.05;83.11
75555;BME280;64138;53.124;18.032;2022-11-20T06:31:21;100720.30;;;-1.09;83.13
75555;BME280;64138;53.124;18.032;2022-11-20T06:33:48;100716.05;;;-1.13;83.14
75555;BME280;64138;53.124;18.032;2022-11-20T06:36:16;100722.07;;;-1.13;82.98
75555;BME280;64138;53.124;18.032;2022-11-20T06:38:43;100719.14;;;-1.12;83.00
75555;BME280;64138;53.124;18.032;2022-11-20T06:41:15;100719.11;;;-1.08;83.09
75555;BME280;64138;53.124;18.032;2022-11-20T06:43:41;100707.33;;;-1.00;83.01
75555;BME280;64138;53.124;18.032;2022-11-20T06:46:09;100705.88;;;-0.98;82.73
75555;BME280;64138;53.124;18.032;2022-11-20T06:48:36;100708.77;;;-0.96;82.80
75555;BME280;64138;53.124;18.032;2022-11-20T06:51:04;100710.81;;;-0.94;83.00
75555;BME280;64138;53.124;18.032;2022-11-20T06:53:31;100708.11;;;-0.97;82.82
75555;BME280;64138;53.124;18.032;2022-11-20T06:55:57;100713.80;;;-0.98;82.94
75555;BME280;64138;53.124;18.032;2022-11-20T06:58:26;100714.31;;;-0.97;82.90
75555;BME280;64138;53.124;18.032;2022-11-20T07:00:53;100711.77;;;-0.95;82.82
75555;BME280;64138;53.124;18.032;2022-11-20T07:03:20;100712.35;;;-0.87;82.56
75555;BME280;64138;53.124;18.032;2022-11-20T07:05:46;100714.93;;;-0.77;82.38
75555;BME280;64138;53.124;18.032;2022-11-20T07:08:12;100719.73;;;-0.76;82.38
75555;BME280;64138;53.124;18.032;2022-11-20T07:10:38;100715.05;;;-0.77;82.38
75555;BME280;64138;53.124;18.032;2022-11-20T07:13:04;100710.58;;;-0.75;82.42
75555;BME280;64138;53.124;18.032;2022-11-20T07:15:30;100710.17;;;-0.73;82.36
75555;BME280;64138;53.124;18.032;2022-11-20T07:17:59;100705.30;;;-0.75;82.22
75555;BME280;64138;53.124;18.032;2022-11-20T07:20:25;100700.73;;;-0.77;82.30
75555;BME280;64138;53.124;18.032;2022-11-20T07:22:55;100701.17;;;-0.75;82.39
75555;BME280;64138;53.124;18.032;2022-11-20T07:25:22;100701.52;;;-0.72;82.39
75555;BME280;64138;53.124;18.032;2022-11-20T07:27:48;100707.63;;;-0.64;82.26
75555;BME280;64138;53.124;18.032;2022-11-20T07:30:15;100700.30;;;-0.69;82.29
75555;BME280;64138;53.124;18.032;2022-11-20T07:32:42;100708.70;;;-0.64;82.33
75555;BME280;64138;53.124;18.032;2022-11-20T07:35:08;100705.42;;;-0.58;82.17
75555;BME280;64138;53.124;18.032;2022-11-20T07:37:35;100710.48;;;-0.50;81.93
75555;BME280;64138;53.124;18.032;2022-11-20T07:40:02;100707.23;;;-0.49;81.94
75555;BME280;64138;53.124;18.032;2022-11-20T07:42:28;100705.05;;;-0.47;81.88
75555;BME280;64138;53.124;18.032;2022-11-20T07:44:55;100700.43;;;-0.44;81.87
75555;BME280;64138;53.124;18.032;2022-11-20T07:47:21;100686.53;;;-0.49;81.82
75555;BME280;64138;53.124;18.032;2022-11-20T07:49:47;100697.52;;;-0.35;81.73
75555;BME280;64138;53.124;18.032;2022-11-20T07:52:13;100698.14;;;-0.27;81.41
75555;BME280;64138;53.124;18.032;2022-11-20T07:54:39;100694.74;;;-0.19;81.22
75555;BME280;64138;53.124;18.032;2022-11-20T07:57:05;100693.27;;;-0.15;81.12
75555;BME280;64138;53.124;18.032;2022-11-20T07:59:31;100694.89;;;-0.10;81.23
75555;BME280;64138;53.124;18.032;2022-11-20T08:01:57;100696.59;;;-0.04;81.12
75555;BME280;64138;53.124;18.032;2022-11-20T08:04:23;100693.33;;;-0.01;81.08
75555;BME280;64138;53.124;18.032;2022-11-20T08:06:49;100696.72;;;0.06;80.84
75555;BME280;64138;53.124;18.032;2022-11-20T08:09:15;100692.73;;;0.08;80.63
75555;BME280;64138;53.124;18.032;2022-11-20T08:11:41;100689.05;;;0.08;80.60
75555;BME280;64138;53.124;18.032;2022-11-20T08:14:25;100676.12;;;0.04;80.58
75555;BME280;64138;53.124;18.032;2022-11-20T08:16:53;100689.67;;;0.25;80.29
75555;BME280;64138;53.124;18.032;2022-11-20T08:19:19;100690.24;;;0.35;79.98
75555;BME280;64138;53.124;18.032;2022-11-20T08:21:45;100687.33;;;0.36;79.96
75555;BME280;64138;53.124;18.032;2022-11-20T08:24:11;100691.20;;;0.38;79.76
75555;BME280;64138;53.124;18.032;2022-11-20T08:26:38;100688.45;;;0.41;79.78
75555;BME280;64138;53.124;18.032;2022-11-20T08:29:05;100680.65;;;0.46;79.61
75555;BME280;64138;53.124;18.032;2022-11-20T08:31:31;100686.92;;;0.52;79.32
75555;BME280;64138;53.124;18.032;2022-11-20T08:33:57;100680.80;;;0.49;79.60
75555;BME280;64138;53.124;18.032;2022-11-20T08:36:24;100672.02;;;0.60;79.41
75555;BME280;64138;53.124;18.032;2022-11-20T08:38:51;100679.54;;;0.78;78.85
75555;BME280;64138;53.124;18.032;2022-11-20T08:41:18;100680.40;;;0.84;78.64
75555;BME280;64138;53.124;18.032;2022-11-20T08:43:54;100678.58;;;0.87;78.98
75555;BME280;64138;53.124;18.032;2022-11-20T08:46:20;100677.73;;;0.88;78.48
75555;BME280;64138;53.124;18.032;2022-11-20T08:48:46;100673.39;;;0.83;78.43
75555;BME280;64138;53.124;18.032;2022-11-20T08:51:13;100673.04;;;0.75;78.46
75555;BME280;64138;53.124;18.032;2022-11-20T08:53:40;100671.73;;;0.72;78.68
75555;BME280;64138;53.124;18.032;2022-11-20T08:56:06;100666.03;;;0.79;78.37
75555;BME280;64138;53.124;18.032;2022-11-20T08:58:32;100669.99;;;0.87;78.25
75555;BME280;64138;53.124;18.032;2022-11-20T09:00:58;100672.72;;;0.89;78.59
75555;BME280;64138;53.124;18.032;2022-11-20T09:03:24;100672.86;;;0.85;78.45
75555;BME280;64138;53.124;18.032;2022-11-20T09:06:06;100667.58;;;0.79;78.36
75555;BME280;64138;53.124;18.032;2022-11-20T09:08:33;100660.55;;;0.74;78.23
75555;BME280;64138;53.124;18.032;2022-11-20T09:10:59;100661.09;;;0.74;78.30
75555;BME280;64138;53.124;18.032;2022-11-20T09:13:27;100659.74;;;0.73;78.51
75555;BME280;64138;53.124;18.032;2022-11-20T09:15:58;100658.41;;;0.77;78.14
75555;BME280;64138;53.124;18.032;2022-11-20T09:18:25;100657.63;;;0.88;77.88
75555;BME280;64138;53.124;18.032;2022-11-20T09:20:56;100655.63;;;0.87;78.12
75555;BME280;64138;53.124;18.032;2022-11-20T09:23:22;100651.29;;;0.90;78.35
75555;BME280;64138;53.124;18.032;2022-11-20T09:25:48;100652.05;;;1.00;78.48
75555;BME280;64138;53.124;18.032;2022-11-20T09:28:14;100652.52;;;1.10;78.49
75555;BME280;64138;53.124;18.032;2022-11-20T09:30:40;100630.16;;;1.05;77.67
75555;BME280;64138;53.124;18.032;2022-11-20T09:33:06;100646.48;;;1.25;77.73
75555;BME280;64138;53.124;18.032;2022-11-20T09:35:32;100645.64;;;1.31;77.45
75555;BME280;64138;53.124;18.032;2022-11-20T09:38:04;100646.25;;;1.37;76.96
75555;BME280;64138;53.124;18.032;2022-11-20T09:40:30;100644.84;;;1.38;77.19
75555;BME280;64138;53.124;18.032;2022-11-20T09:43:04;100640.89;;;1.46;77.24
75555;BME280;64138;53.124;18.032;2022-11-20T09:48:11;100647.73;;;1.71;76.13
75555;BME280;64138;53.124;18.032;2022-11-20T09:50:52;100645.66;;;1.71;75.86
75555;BME280;64138;53.124;18.032;2022-11-20T09:53:35;100643.08;;;1.69;75.84
75555;BME280;64138;53.124;18.032;2022-11-20T09:56:08;100643.30;;;1.61;76.05
75555;BME280;64138;53.124;18.032;2022-11-20T09:58:45;100650.20;;;1.52;76.44
75555;BME280;64138;53.124;18.032;2022-11-20T10:01:15;100648.84;;;1.33;76.32
75555;BME280;64138;53.124;18.032;2022-11-20T10:04:01;100641.40;;;1.11;76.75
75555;BME280;64138;53.124;18.032;2022-11-20T10:11:41;100635.98;;;0.79;77.50
75555;BME280;64138;53.124;18.032;2022-11-20T10:25:39;100631.67;;;1.17;76.27
75555;BME280;64138;53.124;18.032;2022-11-20T10:30:59;100622.91;;;1.22;76.72
75555;BME280;64138;53.124;18.032;2022-11-20T10:33:26;100616.26;;;1.28;76.95
75555;BME280;64138;53.124;18.032;2022-11-20T10:35:59;100617.51;;;1.32;76.91
75555;BME280;64138;53.124;18.032;2022-11-20T10:38:35;100619.00;;;1.37;77.02
75555;BME280;64138;53.124;18.032;2022-11-20T10:41:05;100613.54;;;1.39;76.17
75555;BME280;64138;53.124;18.032;2022-11-20T10:43:57;100615.04;;;1.38;75.91
75555;BME280;64138;53.124;18.032;2022-11-20T10:46:25;100614.94;;;1.40;76.35
75555;BME280;64138;53.124;18.032;2022-11-20T10:48:51;100615.91;;;1.48;76.48
75555;BME280;64138;53.124;18.032;2022-11-20T10:54:29;100614.95;;;1.34;76.17
75555;BME280;64138;53.124;18.032;2022-11-20T10:57:11;100613.12;;;1.25;76.42
75555;BME280;64138;53.124;18.032;2022-11-20T11:02:35;100611.36;;;1.22;76.73
75555;BME280;64138;53.124;18.032;2022-11-20T11:05:14;100611.04;;;1.24;76.57
75555;BME280;64138;53.124;18.032;2022-11-20T11:07:44;100610.38;;;1.25;76.41
75555;BME280;64138;53.124;18.032;2022-11-20T11:15:46;100608.17;;;1.33;75.94
75555;BME280;64138;53.124;18.032;2022-11-20T11:18:23;100608.60;;;1.28;76.01
75555;BME280;64138;53.124;18.032;2022-11-20T11:20:50;100609.31;;;1.20;76.26
75555;BME280;64138;53.124;18.032;2022-11-20T11:23:42;100610.71;;;1.11;76.44
75555;BME280;64138;53.124;18.032;2022-11-20T11:26:22;100608.39;;;0.98;76.52
75555;BME280;64138;53.124;18.032;2022-11-20T11:29:03;100607.86;;;0.92;76.68
75555;BME280;64138;53.124;18.032;2022-11-20T11:31:31;100609.33;;;0.83;76.51
75555;BME280;64138;53.124;18.032;2022-11-20T11:34:11;100607.95;;;0.75;77.00
75555;BME280;64138;53.124;18.032;2022-11-20T11:36:38;100605.88;;;0.71;77.34
75555;BME280;64138;53.124;18.032;2022-11-20T11:39:08;100604.20;;;0.66;77.14
75555;BME280;64138;53.124;18.032;2022-11-20T11:41:36;100604.63;;;0.65;77.32
75555;BME280;64138;53.124;18.032;2022-11-20T11:47:03;100608.77;;;0.68;77.17
75555;BME280;64138;53.124;18.032;2022-11-20T11:49:30;100602.86;;;0.64;77.16
75555;BME280;64138;53.124;18.032;2022-11-20T11:52:18;100601.82;;;0.62;77.45
75555;BME280;64138;53.124;18.032;2022-11-20T11:54:53;100598.36;;;0.62;77.55
75555;BME280;64138;53.124;18.032;2022-11-20T12:02:38;100590.33;;;0.73;77.61
75555;BME280;64138;53.124;18.032;2022-11-20T12:10:28;100585.63;;;0.99;77.14
75555;BME280;64138;53.124;18.032;2022-11-20T12:15:46;100582.45;;;1.00;77.07
75555;BME280;64138;53.124;18.032;2022-11-20T12:18:16;100578.35;;;1.05;77.22
75555;BME280;64138;53.124;18.032;2022-11-20T12:26:48;100576.81;;;1.11;76.85
75555;BME280;64138;53.124;18.032;2022-11-20T12:30:01;100565.94;;;1.11;76.92
75555;BME280;64138;53.124;18.032;2022-11-20T12:43:10;100548.13;;;1.55;76.75
75555;BME280;64138;53.124;18.032;2022-11-20T12:46:20;100547.31;;;1.56;76.71
75555;BME280;64138;53.124;18.032;2022-11-20T12:51:48;100541.97;;;1.60;76.65
75555;BME280;64138;53.124;18.032;2022-11-20T12:54:29;100538.13;;;1.63;76.93
75555;BME280;64138;53.124;18.032;2022-11-20T12:57:21;100534.85;;;1.64;76.66
75555;BME280;64138;53.124;18.032;2022-11-20T13:08:00;100525.85;;;1.62;76.72
75555;BME280;64138;53.124;18.032;2022-11-20T13:12:58;100522.66;;;1.67;76.82
75555;BME280;64138;53.124;18.032;2022-11-20T13:15:36;100525.16;;;1.69;76.70
75555;BME280;64138;53.124;18.032;2022-11-20T13:18:08;100523.25;;;1.62;76.58
75555;BME280;64138;53.124;18.032;2022-11-20T13:20:35;100517.55;;;1.56;76.92
75555;BME280;64138;53.124;18.032;2022-11-20T13:23:02;100516.63;;;1.57;76.91
75555;BME280;64138;53.124;18.032;2022-11-20T13:25:33;100507.01;;;1.51;76.91
75555;BME280;64138;53.124;18.032;2022-11-20T13:28:03;100504.21;;;1.49;77.14
75555;BME280;64138;53.124;18.032;2022-11-20T13:30:31;100501.81;;;1.48;77.21
75555;BME280;64138;53.124;18.032;2022-11-20T13:33:07;100497.52;;;1.47;77.12
75555;BME280;64138;53.124;18.032;2022-11-20T13:35:41;100500.31;;;1.46;77.18
75555;BME280;64138;53.124;18.032;2022-11-20T13:38:13;100499.92;;;1.45;77.06
75555;BME280;64138;53.124;18.032;2022-11-20T13:40:55;100497.85;;;1.41;77.24
75555;BME280;64138;53.124;18.032;2022-11-20T13:43:27;100500.31;;;1.35;77.38
75555;BME280;64138;53.124;18.032;2022-11-20T13:48:24;100499.33;;;1.18;77.57
75555;BME280;64138;53.124;18.032;2022-11-20T13:53:36;100497.30;;;0.93;77.89
75555;BME280;64138;53.124;18.032;2022-11-20T14:02:12;100491.14;;;0.64;78.14
75555;BME280;64138;53.124;18.032;2022-11-20T14:04:43;100486.81;;;0.58;77.91
75555;BME280;64138;53.124;18.032;2022-11-20T14:07:11;100490.13;;;0.53;78.09
75555;BME280;64138;53.124;18.032;2022-11-20T14:09:37;100488.58;;;0.49;78.20
75555;BME280;64138;53.124;18.032;2022-11-20T14:12:15;100485.73;;;0.42;78.19
75555;BME280;64138;53.124;18.032;2022-11-20T14:14:51;100484.30;;;0.40;78.50
75555;BME280;64138;53.124;18.032;2022-11-20T14:19:50;100482.80;;;0.36;78.32
75555;BME280;64138;53.124;18.032;2022-11-20T14:22:23;100483.00;;;0.34;78.53
75555;BME280;64138;53.124;18.032;2022-11-20T14:25:04;100483.46;;;0.31;78.61
75555;BME280;64138;53.124;18.032;2022-11-20T14:27:34;100477.30;;;0.24;78.82
75555;BME280;64138;53.124;18.032;2022-11-20T14:30:03;100480.98;;;0.18;78.70
75555;BME280;64138;53.124;18.032;2022-11-20T14:32:30;100481.11;;;0.12;78.87